createdAt,value
2023-05-15T00:02:45.854Z,16.00
2023-05-15T00:07:47.900Z,15.90
2023-05-15T00:12:50.295Z,15.70
2023-05-15T00:17:52.202Z,15.70
2023-05-15T00:22:54.172Z,15.70
2023-05-15T00:27:56.072Z,15.60
2023-05-15T00:32:57.997Z,15.60
2023-05-15T00:38:00.048Z,15.60
2023-05-15T00:43:03.054Z,15.60
2023-05-15T00:48:07.567Z,15.60
2023-05-15T00:53:09.730Z,15.70
2023-05-15T00:58:14.843Z,15.70
2023-05-15T01:03:17.794Z,15.80
2023-05-15T01:08:34.290Z,15.80
2023-05-15T01:13:36.206Z,15.90
2023-05-15T01:18:40.011Z,16.00
2023-05-15T01:24:11.505Z,16.00
2023-05-15T01:29:34.949Z,16.00
2023-05-15T01:35:00.832Z,15.90
2023-05-15T01:40:05.672Z,16.00
2023-05-15T01:45:11.726Z,15.90
2023-05-15T01:50:16.955Z,16.00
2023-05-15T01:55:20.641Z,16.10
2023-05-15T02:00:22.864Z,16.00
2023-05-15T02:05:26.366Z,16.00
2023-05-15T02:10:29.289Z,15.70
2023-05-15T02:15:31.387Z,15.70
2023-05-15T02:20:33.333Z,15.70
2023-05-15T02:25:50.293Z,15.70
2023-05-15T02:31:14.550Z,15.70
2023-05-15T02:36:23.541Z,15.70
2023-05-15T02:41:26.240Z,15.60
2023-05-15T02:46:28.412Z,15.50
2023-05-15T02:51:30.453Z,15.40
2023-05-15T02:56:32.418Z,15.40
2023-05-15T03:01:34.346Z,15.30
2023-05-15T03:06:36.349Z,15.20
2023-05-15T03:11:38.186Z,15.20
2023-05-15T03:16:40.323Z,15.10
2023-05-15T03:21:42.274Z,15.10
2023-05-15T03:26:45.129Z,15.10
2023-05-15T03:31:47.121Z,15.00
2023-05-15T03:36:49.007Z,14.90
2023-05-15T03:41:50.882Z,14.80
2023-05-15T03:46:52.850Z,14.80
2023-05-15T03:51:54.813Z,14.70
2023-05-15T03:56:57.433Z,14.60
2023-05-15T04:02:04.995Z,14.60
2023-05-15T04:07:07.421Z,14.70
2023-05-15T04:12:09.528Z,14.80
2023-05-15T04:17:11.333Z,14.80
2023-05-15T04:22:13.731Z,14.90
2023-05-15T04:27:15.871Z,15.00
2023-05-15T04:32:17.756Z,15.00
2023-05-15T04:37:19.633Z,15.10
2023-05-15T04:42:21.538Z,15.20
2023-05-15T04:47:23.417Z,15.30
2023-05-15T04:52:25.279Z,15.30
2023-05-15T04:57:27.873Z,15.30
2023-05-15T05:02:29.874Z,15.30
2023-05-15T05:07:31.822Z,15.20
2023-05-15T05:12:33.783Z,15.30
2023-05-15T05:17:35.788Z,15.20
2023-05-15T05:22:38.053Z,15.20
2023-05-15T05:27:39.962Z,15.20
2023-05-15T05:32:41.908Z,15.20
2023-05-15T05:37:43.920Z,15.20
2023-05-15T05:42:45.985Z,15.20
2023-05-15T05:47:48.165Z,15.20
2023-05-15T05:52:50.649Z,15.20
2023-05-15T05:57:52.832Z,15.20
2023-05-15T06:02:59.381Z,15.20
2023-05-15T06:08:04.272Z,15.20
2023-05-15T06:13:06.634Z,15.10
2023-05-15T06:18:08.795Z,15.20
2023-05-15T06:23:10.922Z,15.20
2023-05-15T06:28:13.055Z,15.10
2023-05-15T06:33:15.198Z,15.20
2023-05-15T06:38:17.222Z,15.30
2023-05-15T06:43:19.200Z,15.20
2023-05-15T06:48:21.122Z,15.30
2023-05-15T06:53:23.099Z,15.40
2023-05-15T06:58:25.586Z,15.40
2023-05-15T07:03:27.538Z,15.60
2023-05-15T07:08:29.406Z,15.70
2023-05-15T07:13:31.556Z,15.70
2023-05-15T07:18:33.590Z,15.60
2023-05-15T07:23:35.642Z,15.60
2023-05-15T07:28:37.556Z,15.70
2023-05-15T07:33:39.486Z,15.70
2023-05-15T07:38:41.437Z,15.90
2023-05-15T07:43:43.339Z,15.90
2023-05-15T07:48:45.403Z,16.00
2023-05-15T07:53:47.328Z,16.10
2023-05-15T07:58:49.316Z,16.10
2023-05-15T08:03:51.380Z,16.20
2023-05-15T08:08:53.358Z,16.20
2023-05-15T08:13:55.337Z,16.30
2023-05-15T08:19:01.618Z,16.40
2023-05-15T08:24:03.886Z,16.30
2023-05-15T08:29:06.066Z,16.30
2023-05-15T08:34:10.882Z,16.20
2023-05-15T08:39:13.037Z,16.20
2023-05-15T08:44:15.042Z,16.20
2023-05-15T08:49:42.171Z,16.20
2023-05-15T08:54:45.456Z,16.20
2023-05-15T08:59:51.216Z,16.20
2023-05-15T09:04:53.281Z,16.20
2023-05-15T09:09:57.041Z,16.10
2023-05-15T09:15:17.865Z,16.20
2023-05-15T09:20:37.495Z,16.30
2023-05-15T09:25:44.942Z,16.40
2023-05-15T09:30:46.816Z,16.50
2023-05-15T09:35:48.663Z,16.50
2023-05-15T09:40:50.617Z,16.70
2023-05-15T09:45:52.722Z,16.70
2023-05-15T09:50:54.972Z,16.90
2023-05-15T09:55:56.919Z,16.90
2023-05-15T10:01:00.777Z,17.00
2023-05-15T10:06:04.730Z,17.10
2023-05-15T10:11:07.375Z,17.10
2023-05-15T10:16:10.038Z,17.10
2023-05-15T10:21:13.767Z,17.30
2023-05-15T10:26:23.789Z,17.50
2023-05-15T10:31:26.373Z,17.70
2023-05-15T10:36:28.821Z,18.10
2023-05-15T10:41:33.454Z,18.40
2023-05-15T10:46:36.925Z,18.60
2023-05-15T10:51:40.398Z,18.90
2023-05-15T10:56:42.814Z,19.20
2023-05-15T11:01:44.865Z,19.50
2023-05-15T11:06:48.339Z,19.60
2023-05-15T11:11:57.698Z,19.60
2023-05-15T11:17:04.895Z,19.60
2023-05-15T11:22:25.946Z,19.60
2023-05-15T11:27:41.671Z,19.70
2023-05-15T11:33:01.638Z,19.80
2023-05-15T11:38:16.610Z,19.90
2023-05-15T11:43:28.152Z,19.90
2023-05-15T11:48:43.142Z,19.90
2023-05-15T11:53:45.531Z,19.80
2023-05-15T11:58:58.273Z,19.80
2023-05-15T12:04:00.446Z,19.70
2023-05-15T12:09:02.700Z,19.80
2023-05-15T12:14:04.737Z,20.10
2023-05-15T12:19:07.181Z,20.30
2023-05-15T12:24:12.827Z,20.50
2023-05-15T12:29:15.744Z,20.80
2023-05-15T12:34:17.807Z,20.70
2023-05-15T12:39:19.790Z,20.70
2023-05-15T12:44:21.829Z,20.70
2023-05-15T12:49:23.984Z,20.80
2023-05-15T12:54:26.333Z,20.80
2023-05-15T12:59:28.790Z,20.90
2023-05-15T13:04:33.513Z,20.90
2023-05-15T13:09:35.557Z,21.10
2023-05-15T13:14:37.519Z,20.80
2023-05-15T13:19:39.498Z,20.50
2023-05-15T13:24:46.135Z,20.20
2023-05-15T13:29:48.102Z,19.80
2023-05-15T13:34:50.745Z,19.40
2023-05-15T13:39:52.668Z,19.20
2023-05-15T13:44:54.584Z,19.00
2023-05-15T13:49:56.513Z,18.90
2023-05-15T13:54:58.513Z,18.80
2023-05-15T14:00:00.415Z,18.80
2023-05-15T14:05:02.683Z,18.80
2023-05-15T14:10:05.154Z,18.80
2023-05-15T14:15:07.647Z,18.90
2023-05-15T14:20:11.616Z,19.00
2023-05-15T14:25:13.667Z,19.10
2023-05-15T14:30:15.794Z,19.20
2023-05-15T14:35:17.748Z,19.30
2023-05-15T14:40:19.856Z,19.30
2023-05-15T14:45:21.894Z,19.50
2023-05-15T14:50:24.022Z,19.70
2023-05-15T14:55:26.074Z,19.80
2023-05-15T15:00:28.363Z,20.00
2023-05-15T15:05:30.455Z,20.20
2023-05-15T15:10:43.441Z,20.20
2023-05-15T15:15:46.699Z,20.40
2023-05-15T15:20:48.983Z,20.40
2023-05-15T15:25:51.014Z,20.40
2023-05-15T15:30:53.024Z,20.60
2023-05-15T15:35:55.745Z,20.60
2023-05-15T15:40:57.708Z,20.60
2023-05-15T15:45:59.725Z,20.70
2023-05-15T15:51:01.665Z,20.80
2023-05-15T15:56:03.750Z,20.90
2023-05-15T16:01:05.992Z,20.90
2023-05-15T16:06:08.003Z,20.90
2023-05-15T16:11:10.037Z,21.00
2023-05-15T16:16:12.064Z,21.00
2023-05-15T16:21:14.677Z,20.80
2023-05-15T16:26:16.660Z,20.70
2023-05-15T16:31:18.657Z,20.50
2023-05-15T16:36:20.926Z,20.60
2023-05-15T16:41:23.010Z,20.50
2023-05-15T16:46:25.015Z,20.50
2023-05-15T16:51:27.059Z,20.50
2023-05-15T16:56:29.227Z,20.60
2023-05-15T17:01:31.265Z,20.60
2023-05-15T17:06:33.323Z,20.70
2023-05-15T17:11:35.352Z,20.60
2023-05-15T17:16:37.525Z,20.50
2023-05-15T17:21:39.701Z,20.40
2023-05-15T17:26:42.313Z,20.20
2023-05-15T17:31:44.474Z,20.20
2023-05-15T17:36:51.326Z,20.20
2023-05-15T17:41:53.781Z,20.10
2023-05-15T17:46:56.133Z,20.10
2023-05-15T17:52:00.072Z,20.10
2023-05-15T17:57:02.492Z,20.10
2023-05-15T18:02:04.837Z,20.20
2023-05-15T18:07:07.356Z,20.10
2023-05-15T18:12:09.723Z,20.00
2023-05-15T18:17:11.908Z,19.90
2023-05-15T18:22:13.908Z,19.80
2023-05-15T18:27:15.765Z,19.80
2023-05-15T18:32:18.914Z,19.80
2023-05-15T18:37:20.829Z,19.90
2023-05-15T18:42:23.495Z,19.80
2023-05-15T18:47:25.905Z,19.80
2023-05-15T18:52:28.766Z,19.80
2023-05-15T18:57:30.615Z,19.70
2023-05-15T19:02:32.948Z,19.60
2023-05-15T19:07:34.942Z,19.50
2023-05-15T19:12:36.742Z,19.40
2023-05-15T19:17:38.898Z,19.30
2023-05-15T19:22:40.866Z,19.30
2023-05-15T19:27:42.832Z,19.30
2023-05-15T19:32:45.169Z,19.20
2023-05-15T19:37:47.525Z,19.20
2023-05-15T19:42:49.505Z,19.20
2023-05-15T19:47:51.408Z,19.10
2023-05-15T19:52:53.306Z,18.80
2023-05-15T19:57:56.268Z,18.80
2023-05-15T20:02:58.189Z,18.60
2023-05-15T20:08:00.197Z,18.60
2023-05-15T20:13:02.127Z,18.50
2023-05-15T20:18:04.151Z,18.30
2023-05-15T20:23:06.136Z,18.30
2023-05-15T20:28:07.911Z,18.30
2023-05-15T20:33:09.865Z,18.40
2023-05-15T20:38:12.649Z,18.40
2023-05-15T20:43:17.230Z,18.40
2023-05-15T20:48:19.143Z,18.30
2023-05-15T20:53:21.207Z,18.20
2023-05-15T20:58:23.096Z,18.10
2023-05-15T21:03:24.921Z,18.00
2023-05-15T21:08:27.813Z,17.80
2023-05-15T21:13:29.678Z,17.90
2023-05-15T21:18:31.533Z,17.90
2023-05-15T21:23:36.423Z,17.80
2023-05-15T21:28:38.274Z,17.70
2023-05-15T21:33:41.204Z,17.70
2023-05-15T21:38:43.100Z,17.60
2023-05-15T21:43:45.201Z,17.60
2023-05-15T21:48:47.849Z,17.60
2023-05-15T21:53:49.723Z,17.70
2023-05-15T21:58:53.280Z,17.70
2023-05-15T22:03:55.125Z,17.60
2023-05-15T22:08:57.650Z,17.50
2023-05-15T22:13:59.716Z,17.40
2023-05-15T22:19:02.095Z,17.40
2023-05-15T22:24:05.906Z,17.30
2023-05-15T22:29:16.290Z,17.20
2023-05-15T22:34:18.566Z,17.20
2023-05-15T22:39:20.988Z,17.20
2023-05-15T22:44:23.193Z,17.20
2023-05-15T22:49:26.556Z,17.30
2023-05-15T22:54:28.874Z,17.30
2023-05-15T22:59:31.235Z,17.40
2023-05-15T23:04:34.520Z,17.30
2023-05-15T23:09:38.157Z,17.30
2023-05-15T23:14:53.040Z,17.30
2023-05-15T23:19:58.668Z,17.30
2023-05-15T23:25:01.970Z,17.30
2023-05-15T23:30:06.601Z,17.30
2023-05-15T23:35:10.258Z,17.30
2023-05-15T23:40:14.595Z,17.20
2023-05-15T23:45:17.638Z,17.10
2023-05-15T23:50:21.534Z,17.10
2023-05-15T23:55:24.603Z,17.00
